EXS50NV LEIB-EGSS
Flight info
| Callsign | EXS50NV |
|---|---|
| Flight time | 1h 49m |
| Altitude | 40000 |
| Route | EPAMA N856 UMURE DCT XIKEN DCT KARES DCT ARBEK DCT REBUL DCT USKAR DCT MOPAS DCT GIROM DCT GONUP DCT TUPAR UN861 DIKRO UM185 DESNA M185 TELTU |
| Aircraft | B738/M-SDE2E3FGHIRWXY/LB1 |
Departure
| Time | 2026-05-04 09:58 |
|---|---|
| Airport | Ibiza Airport (LEIB) |
Arrival
| Time | 2026-05-04 11:47 |
|---|---|
| Airport | London Stansted Airport (EGSS) |
| Time | Latitude | Longitude | Altitude | Speed | Heading |
|---|---|---|---|---|---|
| 2026-05-04 09:46 | 38.87438 | 1.36958 | 7 ft | 0 kts | 332° |
| 2026-05-04 09:52 | 38.87438 | 1.36957 | 7 ft | 0 kts | 332° |
| 2026-05-04 09:52 | 38.87475 | 1.36906 | 7 ft | 13 kts | 272° |
| 2026-05-04 09:52 | 38.87432 | 1.36807 | 7 ft | 13 kts | 212° |
| 2026-05-04 09:53 | 38.87350 | 1.36831 | 7 ft | 13 kts | 153° |
| 2026-05-04 09:53 | 38.87305 | 1.36908 | 8 ft | 12 kts | 67° |
| 2026-05-04 09:53 | 38.87344 | 1.37009 | 7 ft | 15 kts | 62° |
| 2026-05-04 09:53 | 38.87415 | 1.37179 | 7 ft | 23 kts | 62° |
| 2026-05-04 09:54 | 38.87487 | 1.37357 | 7 ft | 22 kts | 62° |
| 2026-05-04 09:54 | 38.87561 | 1.37536 | 9 ft | 27 kts | 62° |
| 2026-05-04 09:54 | 38.87668 | 1.37788 | 8 ft | 33 kts | 62° |
| 2026-05-04 09:54 | 38.87775 | 1.38045 | 7 ft | 32 kts | 62° |
| 2026-05-04 09:55 | 38.87873 | 1.38286 | 7 ft | 30 kts | 62° |
| 2026-05-04 09:55 | 38.87969 | 1.38515 | 7 ft | 28 kts | 62° |
| 2026-05-04 09:55 | 38.87971 | 1.38654 | 6 ft | 11 kts | 150° |
| 2026-05-04 09:55 | 38.87951 | 1.38667 | 6 ft | 0 kts | 151° |
| 2026-05-04 09:56 | 38.87947 | 1.38669 | 6 ft | 5 kts | 152° |
| 2026-05-04 09:56 | 38.87841 | 1.38661 | 2 ft | 17 kts | 234° |
| 2026-05-04 09:56 | 38.87821 | 1.38608 | 2 ft | 0 kts | 242° |
| 2026-05-04 09:57 | 38.87722 | 1.38370 | 5 ft | 77 kts | 242° |
| 2026-05-04 09:57 | 38.87330 | 1.37421 | 44 ft | 158 kts | 240° |
| 2026-05-04 09:58 | 38.86752 | 1.36011 | 714 ft | 188 kts | 242° |
| 2026-05-04 09:58 | 38.86195 | 1.34592 | 2210 ft | 172 kts | 242° |
| 2026-05-04 09:58 | 38.85668 | 1.33132 | 3045 ft | 191 kts | 251° |
| 2026-05-04 10:00 | 38.96517 | 1.30273 | 8210 ft | 295 kts | 3° |
| 2026-05-04 10:00 | 38.98574 | 1.30553 | 9180 ft | 299 kts | 2° |
| 2026-05-04 10:02 | 39.15126 | 1.32584 | 14261 ft | 370 kts | 1° |
| 2026-05-04 10:04 | 39.33890 | 1.34822 | 19239 ft | 405 kts | 359° |
| 2026-05-04 10:04 | 39.36712 | 1.35159 | 19876 ft | 410 kts | 359° |
| 2026-05-04 10:04 | 39.39571 | 1.35502 | 20484 ft | 415 kts | 359° |
| 2026-05-04 10:04 | 39.42463 | 1.35849 | 21081 ft | 420 kts | 359° |
| 2026-05-04 10:05 | 39.45387 | 1.36200 | 21664 ft | 425 kts | 359° |
| 2026-05-04 10:05 | 39.48352 | 1.36557 | 22244 ft | 430 kts | 359° |
| 2026-05-04 10:05 | 39.51344 | 1.36918 | 22818 ft | 435 kts | 359° |
| 2026-05-04 10:05 | 39.54372 | 1.37283 | 23382 ft | 439 kts | 359° |
| 2026-05-04 10:06 | 39.57393 | 1.37646 | 23880 ft | 444 kts | 359° |
| 2026-05-04 10:06 | 39.60477 | 1.37953 | 24368 ft | 444 kts | 355° |
| 2026-05-04 10:06 | 39.63545 | 1.37777 | 24858 ft | 441 kts | 348° |
| 2026-05-04 10:08 | 39.82215 | 1.35097 | 27643 ft | 460 kts | 346° |
| 2026-05-04 10:08 | 39.85372 | 1.34676 | 28074 ft | 463 kts | 346° |
| 2026-05-04 10:08 | 39.88587 | 1.34251 | 28546 ft | 467 kts | 346° |
| 2026-05-04 10:08 | 39.91837 | 1.33821 | 28950 ft | 471 kts | 346° |
| 2026-05-04 10:09 | 39.95102 | 1.33390 | 29338 ft | 474 kts | 346° |
| 2026-05-04 10:09 | 39.98391 | 1.32955 | 29730 ft | 477 kts | 346° |
| 2026-05-04 10:09 | 40.01700 | 1.32516 | 30096 ft | 480 kts | 346° |
| 2026-05-04 10:09 | 40.05030 | 1.32073 | 30435 ft | 482 kts | 346° |
| 2026-05-04 10:10 | 40.08377 | 1.31627 | 30744 ft | 485 kts | 346° |
| 2026-05-04 10:10 | 40.11744 | 1.31179 | 31044 ft | 487 kts | 346° |
| 2026-05-04 10:10 | 40.15124 | 1.30727 | 31342 ft | 490 kts | 346° |
| 2026-05-04 10:10 | 40.18521 | 1.30273 | 31632 ft | 492 kts | 346° |
| 2026-05-04 10:11 | 40.21888 | 1.29823 | 31912 ft | 494 kts | 346° |
| 2026-05-04 10:11 | 40.25312 | 1.29365 | 32275 ft | 495 kts | 346° |
| 2026-05-04 10:11 | 40.28735 | 1.28909 | 32682 ft | 494 kts | 346° |
| 2026-05-04 10:11 | 40.32144 | 1.28453 | 33114 ft | 492 kts | 346° |
| 2026-05-04 10:12 | 40.35554 | 1.27995 | 33502 ft | 492 kts | 346° |
| 2026-05-04 10:12 | 40.38960 | 1.27535 | 33855 ft | 492 kts | 346° |
| 2026-05-04 10:12 | 40.42366 | 1.27075 | 34182 ft | 492 kts | 346° |
| 2026-05-04 10:12 | 40.45762 | 1.26616 | 34538 ft | 490 kts | 346° |
| 2026-05-04 10:13 | 40.49105 | 1.26165 | 34942 ft | 488 kts | 346° |
| 2026-05-04 10:13 | 40.52517 | 1.25704 | 35333 ft | 485 kts | 346° |
| 2026-05-04 10:13 | 40.55830 | 1.25254 | 35656 ft | 485 kts | 346° |
| 2026-05-04 10:13 | 40.59180 | 1.24798 | 35946 ft | 484 kts | 346° |
| 2026-05-04 10:14 | 40.62534 | 1.24341 | 36255 ft | 484 kts | 346° |
| 2026-05-04 10:14 | 40.65875 | 1.23886 | 36595 ft | 482 kts | 346° |
| 2026-05-04 10:16 | 40.89027 | 1.20706 | 38704 ft | 476 kts | 346° |
| 2026-05-04 10:16 | 40.92317 | 1.20250 | 38938 ft | 475 kts | 346° |
| 2026-05-04 10:16 | 40.95607 | 1.19794 | 39133 ft | 475 kts | 346° |
| 2026-05-04 10:16 | 40.98896 | 1.19339 | 39333 ft | 474 kts | 346° |
| 2026-05-04 10:17 | 41.02176 | 1.18884 | 39549 ft | 474 kts | 346° |
| 2026-05-04 10:17 | 41.05450 | 1.18430 | 39758 ft | 473 kts | 346° |
| 2026-05-04 10:19 | 41.28432 | 1.15688 | 39965 ft | 471 kts | 348° |
| 2026-05-04 10:19 | 41.31691 | 1.15352 | 39970 ft | 469 kts | 348° |
| 2026-05-04 10:19 | 41.38158 | 1.14678 | 39986 ft | 472 kts | 349° |
| 2026-05-04 10:20 | 41.44758 | 1.13993 | 39989 ft | 480 kts | 349° |
| 2026-05-04 10:20 | 41.51464 | 1.13302 | 39996 ft | 486 kts | 349° |
| 2026-05-04 10:21 | 41.58245 | 1.12586 | 39998 ft | 491 kts | 349° |
| 2026-05-04 10:21 | 41.65074 | 1.11823 | 39983 ft | 494 kts | 349° |
| 2026-05-04 10:22 | 41.75313 | 1.10710 | 39976 ft | 495 kts | 349° |
| 2026-05-04 10:23 | 41.82185 | 1.09997 | 39985 ft | 495 kts | 350° |
| 2026-05-04 10:25 | 42.09492 | 1.07121 | 39977 ft | 491 kts | 350° |
| 2026-05-04 10:25 | 42.16295 | 1.06397 | 39978 ft | 491 kts | 350° |
| 2026-05-04 10:26 | 42.23105 | 1.05651 | 39985 ft | 491 kts | 350° |
| 2026-05-04 10:26 | 42.29905 | 1.04900 | 39992 ft | 491 kts | 350° |
| 2026-05-04 10:27 | 42.36669 | 1.04154 | 39986 ft | 490 kts | 350° |
| 2026-05-04 10:27 | 42.43467 | 1.03404 | 39991 ft | 491 kts | 350° |
| 2026-05-04 10:28 | 42.50279 | 1.02662 | 39990 ft | 491 kts | 350° |
| 2026-05-04 10:28 | 42.57098 | 1.01924 | 39976 ft | 492 kts | 349° |
| 2026-05-04 10:29 | 42.63917 | 1.01184 | 39980 ft | 491 kts | 350° |
| 2026-05-04 10:29 | 42.70691 | 1.00447 | 39979 ft | 492 kts | 350° |
| 2026-05-04 10:30 | 42.77525 | 0.99655 | 39963 ft | 493 kts | 347° |
| 2026-05-04 10:30 | 42.84141 | 0.97629 | 39966 ft | 485 kts | 340° |
| 2026-05-04 10:31 | 42.90658 | 0.95253 | 39974 ft | 485 kts | 339° |
| 2026-05-04 10:32 | 43.13587 | 0.87250 | 39957 ft | 487 kts | 340° |
| 2026-05-04 10:33 | 43.20164 | 0.84966 | 39967 ft | 488 kts | 340° |
| 2026-05-04 10:33 | 43.26702 | 0.82688 | 39967 ft | 488 kts | 341° |
| 2026-05-04 10:34 | 43.33277 | 0.80393 | 39958 ft | 487 kts | 341° |
| 2026-05-04 10:34 | 43.39843 | 0.78095 | 39968 ft | 487 kts | 340° |
| 2026-05-04 10:35 | 43.46421 | 0.75774 | 39990 ft | 488 kts | 340° |
| 2026-05-04 10:35 | 43.52829 | 0.73033 | 39960 ft | 484 kts | 336° |
| 2026-05-04 10:36 | 43.59193 | 0.70043 | 39952 ft | 482 kts | 336° |
| 2026-05-04 10:36 | 43.65542 | 0.67069 | 39965 ft | 482 kts | 337° |
| 2026-05-04 10:37 | 43.71901 | 0.64136 | 39952 ft | 481 kts | 337° |
| 2026-05-04 10:37 | 43.78257 | 0.61222 | 39960 ft | 481 kts | 337° |
| 2026-05-04 10:39 | 44.00457 | 0.50998 | 39961 ft | 482 kts | 337° |
| 2026-05-04 10:40 | 44.06825 | 0.48049 | 39969 ft | 482 kts | 337° |
| 2026-05-04 10:40 | 44.13151 | 0.45112 | 39971 ft | 483 kts | 337° |
| 2026-05-04 10:41 | 44.19529 | 0.42145 | 39970 ft | 483 kts | 337° |
| 2026-05-04 10:41 | 44.25907 | 0.39171 | 39969 ft | 484 kts | 338° |
| 2026-05-04 10:42 | 44.32296 | 0.36185 | 39960 ft | 484 kts | 338° |
| 2026-05-04 10:42 | 44.38644 | 0.33211 | 39956 ft | 484 kts | 338° |
| 2026-05-04 10:43 | 44.45038 | 0.30209 | 39955 ft | 485 kts | 338° |
| 2026-05-04 10:45 | 44.70581 | 0.18146 | 39947 ft | 485 kts | 338° |
| 2026-05-04 10:45 | 44.76979 | 0.15107 | 39944 ft | 486 kts | 338° |
| 2026-05-04 10:46 | 44.83386 | 0.12057 | 39942 ft | 486 kts | 338° |
| 2026-05-04 10:46 | 44.89780 | 0.09006 | 39949 ft | 485 kts | 338° |
| 2026-05-04 10:47 | 44.96141 | 0.05963 | 39947 ft | 486 kts | 338° |
| 2026-05-04 10:47 | 45.02536 | 0.02896 | 39952 ft | 486 kts | 338° |
| 2026-05-04 10:49 | 45.28083 | -0.09426 | 39948 ft | 485 kts | 338° |
| 2026-05-04 10:50 | 45.34475 | -0.12528 | 39951 ft | 486 kts | 338° |
| 2026-05-04 10:52 | 45.59952 | -0.24963 | 39976 ft | 484 kts | 338° |
| 2026-05-04 10:52 | 45.66317 | -0.28089 | 39961 ft | 483 kts | 338° |
| 2026-05-04 10:54 | 45.91707 | -0.40632 | 39947 ft | 483 kts | 338° |
| 2026-05-04 10:56 | 46.17185 | -0.53342 | 39962 ft | 485 kts | 338° |
| 2026-05-04 10:57 | 46.23564 | -0.56543 | 39961 ft | 485 kts | 338° |
| 2026-05-04 10:57 | 46.29940 | -0.59752 | 39962 ft | 485 kts | 338° |
| 2026-05-04 10:58 | 46.36307 | -0.62964 | 39966 ft | 485 kts | 338° |
| 2026-05-04 10:58 | 46.42663 | -0.66091 | 39955 ft | 487 kts | 342° |
| 2026-05-04 10:59 | 46.49365 | -0.67611 | 39964 ft | 489 kts | 352° |
| 2026-05-04 10:59 | 46.56135 | -0.68617 | 39957 ft | 489 kts | 352° |
| 2026-05-04 11:00 | 46.62896 | -0.69663 | 39962 ft | 488 kts | 352° |
| 2026-05-04 11:02 | 46.89845 | -0.74211 | 39958 ft | 488 kts | 352° |
| 2026-05-04 11:05 | 47.40334 | -0.82877 | 39966 ft | 488 kts | 352° |
| 2026-05-04 11:06 | 47.47077 | -0.84047 | 39966 ft | 488 kts | 352° |
| 2026-05-04 11:06 | 47.53817 | -0.85219 | 39964 ft | 488 kts | 352° |
| 2026-05-04 11:10 | 48.01077 | -0.91006 | 39970 ft | 487 kts | 354° |
| 2026-05-04 11:12 | 48.28045 | -0.94359 | 39965 ft | 486 kts | 354° |
| 2026-05-04 11:12 | 48.34782 | -0.95202 | 39964 ft | 486 kts | 354° |
| 2026-05-04 11:13 | 48.41519 | -0.96048 | 39962 ft | 486 kts | 354° |
| 2026-05-04 11:13 | 48.48211 | -0.96890 | 39973 ft | 485 kts | 354° |
| 2026-05-04 11:14 | 48.54940 | -0.97739 | 39971 ft | 485 kts | 354° |
| 2026-05-04 11:16 | 48.81787 | -1.01149 | 39968 ft | 485 kts | 354° |
| 2026-05-04 11:16 | 48.88505 | -1.02008 | 39980 ft | 484 kts | 354° |
| 2026-05-04 11:17 | 48.95224 | -1.02870 | 39984 ft | 484 kts | 354° |
| 2026-05-04 11:19 | 49.22042 | -1.06332 | 39994 ft | 484 kts | 354° |
| 2026-05-04 11:19 | 49.28750 | -1.07204 | 39994 ft | 484 kts | 354° |
| 2026-05-04 11:20 | 49.35454 | -1.08077 | 40008 ft | 483 kts | 354° |
| 2026-05-04 11:20 | 49.42106 | -1.08947 | 39999 ft | 483 kts | 354° |
| 2026-05-04 11:22 | 49.64623 | -1.04182 | 38475 ft | 484 kts | 40° |
| 2026-05-04 11:22 | 49.67225 | -1.00886 | 37758 ft | 483 kts | 40° |
| 2026-05-04 11:23 | 49.69812 | -0.97694 | 37135 ft | 482 kts | 39° |
| 2026-05-04 11:23 | 49.72482 | -0.94592 | 36497 ft | 481 kts | 34° |
| 2026-05-04 11:24 | 49.91630 | -0.88388 | 32943 ft | 469 kts | 4° |
| 2026-05-04 11:25 | 49.94875 | -0.87948 | 32476 ft | 478 kts | 5° |
| 2026-05-04 11:25 | 49.98205 | -0.87470 | 31984 ft | 483 kts | 5° |
| 2026-05-04 11:25 | 50.01541 | -0.86982 | 31446 ft | 480 kts | 5° |
| 2026-05-04 11:26 | 50.08146 | -0.86042 | 30407 ft | 472 kts | 4° |
| 2026-05-04 11:27 | 50.31495 | -0.82729 | 26770 ft | 484 kts | 4° |
| 2026-05-04 11:28 | 50.34838 | -0.82248 | 26275 ft | 481 kts | 4° |
| 2026-05-04 11:28 | 50.38162 | -0.81763 | 25773 ft | 478 kts | 4° |
| 2026-05-04 11:28 | 50.41457 | -0.81279 | 25277 ft | 474 kts | 4° |
| 2026-05-04 11:28 | 50.44732 | -0.80797 | 24782 ft | 470 kts | 4° |
| 2026-05-04 11:29 | 50.47968 | -0.80321 | 24288 ft | 465 kts | 4° |
| 2026-05-04 11:29 | 50.51172 | -0.79850 | 23801 ft | 460 kts | 4° |
| 2026-05-04 11:29 | 50.54339 | -0.79384 | 23263 ft | 455 kts | 4° |
| 2026-05-04 11:29 | 50.57507 | -0.78919 | 22725 ft | 463 kts | 4° |
| 2026-05-04 11:31 | 50.80102 | -0.75637 | 19141 ft | 456 kts | 6° |
| 2026-05-04 11:33 | 51.00210 | -0.63177 | 17239 ft | 438 kts | 22° |
| 2026-05-04 11:33 | 51.02074 | -0.61965 | 17081 ft | 437 kts | 22° |
| 2026-05-04 11:33 | 51.04892 | -0.60137 | 16824 ft | 436 kts | 22° |
| 2026-05-04 11:34 | 51.07696 | -0.58319 | 16600 ft | 436 kts | 22° |
| 2026-05-04 11:34 | 51.10498 | -0.56499 | 16342 ft | 435 kts | 22° |
| 2026-05-04 11:34 | 51.13298 | -0.54677 | 16096 ft | 433 kts | 22° |
| 2026-05-04 11:34 | 51.16981 | -0.52276 | 15766 ft | 431 kts | 22° |
| 2026-05-04 11:35 | 51.18859 | -0.51049 | 15599 ft | 431 kts | 22° |
| 2026-05-04 11:35 | 51.21627 | -0.49239 | 15361 ft | 430 kts | 22° |
| 2026-05-04 11:35 | 51.24380 | -0.47437 | 15123 ft | 429 kts | 22° |
| 2026-05-04 11:35 | 51.27145 | -0.45624 | 14875 ft | 428 kts | 22° |
| 2026-05-04 11:36 | 51.29859 | -0.43842 | 14633 ft | 427 kts | 22° |
| 2026-05-04 11:36 | 51.32597 | -0.42043 | 14391 ft | 425 kts | 22° |
| 2026-05-04 11:36 | 51.35323 | -0.40248 | 14179 ft | 424 kts | 22° |
| 2026-05-04 11:36 | 51.38756 | -0.37986 | 13881 ft | 422 kts | 22° |
| 2026-05-04 11:37 | 51.44143 | -0.34419 | 13369 ft | 420 kts | 23° |
| 2026-05-04 11:37 | 51.49426 | -0.30462 | 12835 ft | 417 kts | 26° |
| 2026-05-04 11:37 | 51.52448 | -0.28091 | 12555 ft | 416 kts | 26° |
| 2026-05-04 11:37 | 51.55049 | -0.26057 | 12326 ft | 414 kts | 25° |
| 2026-05-04 11:38 | 51.57627 | -0.24056 | 12099 ft | 410 kts | 25° |
| 2026-05-04 11:38 | 51.60109 | -0.22139 | 11944 ft | 382 kts | 25° |
| 2026-05-04 11:38 | 51.62425 | -0.20354 | 11779 ft | 356 kts | 25° |
| 2026-05-04 11:38 | 51.64557 | -0.18713 | 11622 ft | 333 kts | 25° |
| 2026-05-04 11:39 | 51.66595 | -0.17144 | 11357 ft | 319 kts | 25° |
| 2026-05-04 11:39 | 51.68566 | -0.15625 | 11154 ft | 311 kts | 25° |
| 2026-05-04 11:40 | 51.79867 | -0.05631 | 9408 ft | 297 kts | 40° |
| 2026-05-04 11:41 | 51.81421 | -0.03472 | 8892 ft | 293 kts | 40° |
| 2026-05-04 11:41 | 51.82972 | -0.01436 | 8374 ft | 289 kts | 31° |
| 2026-05-04 11:41 | 51.84753 | 0.00020 | 7874 ft | 285 kts | 21° |
| 2026-05-04 11:41 | 51.86629 | 0.00997 | 7373 ft | 281 kts | 15° |
| 2026-05-04 11:42 | 51.88509 | 0.01817 | 6895 ft | 278 kts | 14° |
| 2026-05-04 11:42 | 51.90399 | 0.02607 | 6432 ft | 283 kts | 14° |
| 2026-05-04 11:42 | 51.92314 | 0.03392 | 6068 ft | 282 kts | 14° |
| 2026-05-04 11:42 | 51.94047 | 0.04608 | 6042 ft | 267 kts | 47° |
| 2026-05-04 11:43 | 51.94559 | 0.07277 | 6045 ft | 250 kts | 103° |
| 2026-05-04 11:43 | 51.92926 | 0.10735 | 6023 ft | 239 kts | 148° |
| 2026-05-04 11:43 | 51.89788 | 0.11335 | 6000 ft | 236 kts | 205° |
| 2026-05-04 11:43 | 51.87184 | 0.08183 | 6020 ft | 234 kts | 222° |
| 2026-05-04 11:44 | 51.84957 | 0.05521 | 5406 ft | 243 kts | 196° |
| 2026-05-04 11:44 | 51.83331 | 0.05602 | 4971 ft | 234 kts | 158° |
| 2026-05-04 11:44 | 51.82094 | 0.07168 | 4368 ft | 223 kts | 127° |
| 2026-05-04 11:44 | 51.81570 | 0.09432 | 3744 ft | 213 kts | 93° |
| 2026-05-04 11:45 | 51.81793 | 0.11678 | 3159 ft | 197 kts | 70° |
| 2026-05-04 11:45 | 51.82315 | 0.13656 | 2645 ft | 183 kts | 63° |
| 2026-05-04 11:45 | 51.82997 | 0.15303 | 2126 ft | 175 kts | 47° |
| 2026-05-04 11:45 | 51.83867 | 0.16615 | 1639 ft | 168 kts | 41° |
| 2026-05-04 11:46 | 51.84725 | 0.17855 | 1171 ft | 160 kts | 41° |
| 2026-05-04 11:46 | 51.85513 | 0.19015 | 906 ft | 145 kts | 41° |
| 2026-05-04 11:46 | 51.86246 | 0.20092 | 725 ft | 141 kts | 41° |
| 2026-05-04 11:46 | 51.86968 | 0.21181 | 568 ft | 144 kts | 43° |
| 2026-05-04 11:47 | 51.87702 | 0.22282 | 394 ft | 144 kts | 42° |
| 2026-05-04 11:47 | 51.88410 | 0.23344 | 350 ft | 127 kts | 43° |
| 2026-05-04 11:47 | 51.88829 | 0.24013 | 335 ft | 48 kts | 60° |
| 2026-05-04 11:47 | 51.88901 | 0.24336 | 348 ft | 13 kts | 72° |
| 2026-05-04 11:48 | 51.88911 | 0.24385 | 347 ft | 0 kts | 73° |
| 2026-05-04 11:48 | 51.88917 | 0.24460 | 350 ft | 9 kts | 92° |
| 2026-05-04 11:49 | 51.88916 | 0.24571 | 349 ft | 14 kts | 66° |
| 2026-05-04 11:49 | 51.89014 | 0.24737 | 348 ft | 16 kts | 45° |
| 2026-05-04 11:49 | 51.88995 | 0.24893 | 353 ft | 15 kts | 125° |
| 2026-05-04 11:49 | 51.88956 | 0.25038 | 352 ft | 6 kts | 125° |
| 2026-05-04 11:50 | 51.88953 | 0.25046 | 350 ft | 2 kts | 115° |
| 2026-05-04 11:50 | 51.89002 | 0.25016 | 349 ft | 10 kts | 43° |
| 2026-05-04 11:50 | 51.89085 | 0.25139 | 352 ft | 18 kts | 41° |
| 2026-05-04 11:50 | 51.89099 | 0.25209 | 352 ft | 4 kts | 145° |
| 2026-05-04 11:51 | 51.89061 | 0.25234 | 353 ft | 0 kts | 159° |